Westfield, NJ (07091)

6:16 PM EDT on August 25, 2016 (GMT -0400)
Hunterdon Boulevard | | Change Station

Elev 518 ft 40.69 °N, 74.39 °W | Updated 5 minutes ago

Overcast
Overcast
77.7 °F
Feels Like 80 °F
N
0.6
Wind Variable Wind from North
Gusts 1.9 mph

Today
High -- | Low -- °F
--% Chance of Precip.
Yesterday
High -- | Low -- °F
Precip. -- in
Pressure 30.00 in
Visibility 10.0 miles
Clouds Scattered Clouds 4600 ft
Overcast 5500 ft
Heat Index 80 °F
Dew Point 71 °F
Humidity 80%
Rainfall 0.01 in
Snow Depth Not available.
6:18 AM 7:39 PM
Last Quarter, 41% visible
METAR KMMU 252145Z 21006KT 10SM SCT046 OVC055 27/22 A3000
Pressure 30.00 in
Visibility 10.0 miles
Clouds Scattered Clouds 4600 ft
Overcast 5500 ft
Heat Index 80 °F
Dew Point 71 °F
Humidity 80%
Rainfall 0.01 in
Snow Depth Not available.
6:18 AM 7:39 PM
Last Quarter, 41% visible
METAR KMMU 252145Z 21006KT 10SM SCT046 OVC055 27/22 A3000
A tropical disturbance pushing toward the Bahamas, is expected to develop into a tropical depression or storm, and will likely target Florida and the Gulf Coast this weekend into next week.

Right now, the disturbance remains a broad area of low pressure pushing through the Dominican Republic and Haiti, headed toward the southeast Bahamas. Rainfall totals over 3 inches (with locally higher amounts) are expected in HispaƱiola, particularly over elevated terrain.

10-Day Weather Forecast

Almanac

Astronomy

Aug. 25, 2016 Rise Set
Actual Time
Civil Twilight
Nautical Twilight
Astronomical Twilight
Moon
Length of Visible Light
Length of Day
Tomorrow will be .
, % of the Moon is Illuminated

Today's Extremes

State Highs State Lows

Community

WunderPhotos

Upload Photos

1,934,951 photos uploaded!

WunderBlog® & News

Nearby

Air Quality

  Air Quality AQ Index Pollutant
Not available.

Snow Depth

Station Depth Elevation

Earthquake Activity

City Distance Mag. Time & Date
Minimum magnitude displayed is 2.5.

Coastal Water Temperatures

Place Temperature

Stations

Nearby Weather Stations

Station Location Temp. Windchill Dew Point Humidity Wind Precip. Elev Updated Type
                   

Watches & Warnings

There are currently no watches in effect.